createdAt,value
2018-06-16T00:00:37.543Z,74.90
2018-06-16T00:03:05.715Z,75.00
2018-06-16T00:05:33.341Z,75.10
2018-06-16T00:08:00.933Z,74.90
2018-06-16T00:10:28.517Z,74.30
2018-06-16T00:12:56.087Z,74.30
2018-06-16T00:15:24.329Z,74.30
2018-06-16T00:17:51.909Z,74.40
2018-06-16T00:20:19.503Z,74.80
2018-06-16T00:22:47.055Z,75.30
2018-06-16T00:25:14.634Z,75.10
2018-06-16T00:27:42.201Z,75.30
2018-06-16T00:30:09.812Z,74.90
2018-06-16T00:32:37.408Z,75.20
2018-06-16T00:35:05.009Z,75.10
2018-06-16T00:37:32.568Z,75.20
2018-06-16T00:40:00.176Z,75.30
2018-06-16T00:42:27.746Z,75.40
2018-06-16T00:44:55.281Z,75.30
2018-06-16T00:47:22.850Z,74.70
2018-06-16T00:49:50.423Z,74.50
2018-06-16T00:52:18.033Z,74.50
2018-06-16T00:54:45.626Z,74.60
2018-06-16T00:57:24.440Z,74.60
2018-06-16T00:59:52.795Z,74.60
2018-06-16T01:02:20.405Z,74.40
2018-06-16T01:04:47.999Z,74.30
2018-06-16T01:07:15.698Z,74.70
2018-06-16T01:09:43.339Z,74.90
2018-06-16T01:12:10.907Z,75.10
2018-06-16T01:14:38.515Z,75.00
2018-06-16T01:17:06.133Z,75.20
2018-06-16T01:19:33.719Z,75.20
2018-06-16T01:22:01.322Z,75.30
2018-06-16T01:24:28.864Z,75.20
2018-06-16T01:26:56.446Z,75.30
2018-06-16T01:29:24.039Z,75.20
2018-06-16T01:31:51.614Z,75.50
2018-06-16T01:34:19.766Z,75.80
2018-06-16T01:36:48.012Z,76.10
2018-06-16T01:39:15.605Z,76.40
2018-06-16T01:41:43.180Z,76.60
2018-06-16T01:44:10.753Z,76.20
2018-06-16T01:46:39.312Z,76.40
2018-06-16T01:49:06.861Z,76.30
2018-06-16T01:51:35.495Z,76.40
2018-06-16T01:56:30.595Z,76.70
2018-06-16T01:58:59.128Z,76.60
2018-06-16T02:01:26.700Z,76.40
2018-06-16T02:03:54.253Z,76.40
2018-06-16T02:06:21.785Z,76.10
2018-06-16T02:08:49.402Z,75.80
2018-06-16T02:11:17.617Z,75.70
2018-06-16T02:16:12.668Z,75.80
2018-06-16T02:18:40.255Z,75.80
2018-06-16T02:21:07.788Z,76.00
2018-06-16T02:23:36.009Z,76.00
2018-06-16T02:26:04.250Z,75.90
2018-06-16T02:28:31.877Z,76.10
2018-06-16T02:30:59.459Z,76.70
2018-06-16T02:33:27.009Z,77.00
2018-06-16T02:35:55.083Z,77.10
2018-06-16T02:38:22.701Z,77.60
2018-06-16T02:40:50.274Z,77.40
2018-06-16T02:43:17.857Z,77.70
2018-06-16T02:45:45.458Z,77.20
2018-06-16T02:48:13.011Z,76.70
2018-06-16T02:50:40.617Z,76.50
2018-06-16T02:55:35.679Z,76.50
2018-06-16T02:58:03.313Z,76.40
2018-06-16T03:00:30.913Z,76.10
2018-06-16T03:02:58.491Z,76.20
2018-06-16T03:05:26.060Z,76.20
2018-06-16T03:07:53.637Z,76.20
2018-06-16T03:10:21.245Z,76.10
2018-06-16T03:12:48.791Z,75.70
2018-06-16T03:15:16.529Z,75.50
2018-06-16T03:17:44.057Z,75.80
2018-06-16T03:20:11.617Z,76.20
2018-06-16T03:22:39.213Z,76.00
2018-06-16T03:25:06.766Z,75.30
2018-06-16T03:27:34.372Z,75.80
2018-06-16T03:30:01.964Z,75.70
2018-06-16T03:32:29.530Z,75.80
2018-06-16T03:34:58.042Z,76.20
2018-06-16T03:37:25.610Z,76.30
2018-06-16T03:39:53.682Z,76.40
2018-06-16T03:42:21.256Z,76.30
2018-06-16T03:44:48.833Z,76.20
2018-06-16T03:47:16.457Z,76.80
2018-06-16T03:49:44.029Z,77.30
2018-06-16T03:52:11.657Z,77.20
2018-06-16T03:54:39.231Z,77.30
2018-06-16T03:57:06.796Z,77.40
2018-06-16T03:59:34.389Z,77.60
2018-06-16T04:02:02.019Z,77.90
2018-06-16T04:04:29.585Z,77.50
2018-06-16T04:06:57.132Z,77.30
2018-06-16T04:09:24.702Z,77.10
2018-06-16T04:11:52.225Z,76.90
2018-06-16T04:16:47.315Z,76.90
2018-06-16T04:19:14.893Z,76.70
2018-06-16T04:21:42.460Z,76.70
2018-06-16T04:26:38.408Z,76.90
2018-06-16T04:29:06.825Z,76.80
2018-06-16T04:31:34.952Z,76.90
2018-06-16T04:34:02.512Z,77.10
2018-06-16T04:36:30.142Z,77.60
2018-06-16T04:38:57.731Z,77.60
2018-06-16T04:41:25.292Z,77.80
2018-06-16T04:43:54.451Z,77.90
2018-06-16T04:46:22.045Z,77.90
2018-06-16T04:48:49.611Z,78.00
2018-06-16T04:51:17.275Z,77.90
2018-06-16T04:53:44.891Z,77.90
2018-06-16T04:56:12.486Z,78.00
2018-06-16T04:58:40.142Z,78.20
2018-06-16T05:01:07.722Z,78.50
2018-06-16T05:03:35.321Z,78.50
2018-06-16T05:06:02.957Z,78.70
2018-06-16T05:08:31.546Z,79.00
2018-06-16T05:10:59.151Z,79.30
2018-06-16T05:13:26.722Z,79.10
2018-06-16T05:15:54.330Z,79.50
2018-06-16T05:18:21.879Z,79.40
2018-06-16T05:20:49.455Z,79.40
2018-06-16T05:23:17.064Z,79.50
2018-06-16T05:25:44.739Z,79.10
2018-06-16T05:28:12.376Z,78.70
2018-06-16T05:30:40.057Z,78.90
2018-06-16T05:33:07.719Z,78.90
2018-06-16T05:35:35.288Z,78.90
2018-06-16T05:38:03.139Z,78.90
2018-06-16T05:40:30.752Z,78.70
2018-06-16T05:42:58.301Z,78.00
2018-06-16T05:45:25.928Z,78.20
2018-06-16T05:47:53.525Z,78.50
2018-06-16T05:50:21.137Z,78.70
2018-06-16T05:55:16.526Z,77.50
2018-06-16T05:57:44.731Z,77.30
2018-06-16T06:00:14.267Z,77.40
2018-06-16T06:02:41.815Z,77.20
2018-06-16T06:05:09.427Z,77.50
2018-06-16T06:07:37.639Z,77.30
2018-06-16T06:12:32.643Z,76.70
2018-06-16T06:15:00.226Z,76.70
2018-06-16T06:17:27.784Z,76.40
2018-06-16T06:19:55.308Z,76.60
2018-06-16T06:22:22.884Z,75.40
2018-06-16T06:24:50.481Z,75.40
2018-06-16T06:27:18.041Z,75.30
2018-06-16T06:29:45.591Z,74.80
2018-06-16T06:32:13.191Z,74.80
2018-06-16T06:34:40.805Z,74.50
2018-06-16T06:37:08.436Z,74.20
2018-06-16T06:39:35.970Z,74.20
2018-06-16T06:42:04.042Z,74.00
2018-06-16T06:44:31.723Z,74.00
2018-06-16T06:46:59.382Z,73.50
2018-06-16T06:49:26.958Z,73.00
2018-06-16T06:51:54.596Z,72.90
2018-06-16T06:54:22.141Z,72.30
2018-06-16T06:56:49.909Z,71.90
2018-06-16T06:59:17.565Z,71.30
2018-06-16T07:01:45.140Z,71.30
2018-06-16T07:04:12.712Z,71.40
2018-06-16T07:06:40.337Z,70.60
2018-06-16T07:09:09.564Z,70.50
2018-06-16T07:11:37.153Z,70.50
2018-06-16T07:14:04.722Z,70.50
2018-06-16T07:16:32.312Z,69.50
2018-06-16T07:18:59.937Z,69.80
2018-06-16T07:21:27.526Z,69.80
2018-06-16T07:23:56.867Z,69.60
2018-06-16T07:26:24.512Z,68.00
2018-06-16T07:28:52.168Z,67.80
2018-06-16T07:31:19.799Z,66.80
2018-06-16T07:33:47.368Z,67.40
2018-06-16T07:36:15.060Z,67.50
2018-06-16T07:38:42.666Z,67.30
2018-06-16T07:41:10.259Z,65.20
2018-06-16T07:43:37.846Z,62.60
2018-06-16T07:46:05.518Z,63.20
2018-06-16T07:48:33.069Z,64.20
2018-06-16T07:51:00.695Z,64.30
2018-06-16T07:53:28.714Z,64.00
2018-06-16T07:55:56.370Z,64.30
2018-06-16T07:58:23.919Z,62.70
2018-06-16T08:00:51.533Z,63.90
2018-06-16T08:03:19.128Z,63.00
2018-06-16T08:05:46.713Z,62.40
2018-06-16T08:08:14.254Z,62.50
2018-06-16T08:10:41.823Z,63.30
2018-06-16T08:13:09.591Z,64.10
2018-06-16T08:15:37.140Z,62.60
2018-06-16T08:18:04.940Z,62.10
2018-06-16T08:20:32.532Z,61.30
2018-06-16T08:23:00.133Z,62.30
2018-06-16T08:25:27.744Z,61.70
2018-06-16T08:27:55.383Z,61.50
2018-06-16T08:30:22.934Z,61.70
2018-06-16T08:32:50.581Z,61.70
2018-06-16T08:35:18.132Z,62.10
2018-06-16T08:37:45.698Z,61.70
2018-06-16T08:40:13.276Z,58.60
2018-06-16T08:42:40.915Z,60.90
2018-06-16T08:45:08.528Z,59.70
2018-06-16T08:47:36.127Z,58.90
2018-06-16T08:50:03.790Z,58.00
2018-06-16T08:52:31.389Z,57.50
2018-06-16T08:54:59.653Z,59.40
2018-06-16T08:57:27.180Z,57.20
2018-06-16T08:59:54.699Z,57.10
2018-06-16T09:02:22.272Z,56.60
2018-06-16T09:04:49.849Z,56.40
2018-06-16T09:07:17.407Z,56.60
2018-06-16T09:09:45.204Z,55.90
2018-06-16T09:12:12.816Z,54.50
2018-06-16T09:14:40.982Z,53.70
2018-06-16T09:17:08.630Z,55.40
2018-06-16T09:19:36.847Z,55.10
2018-06-16T09:22:04.674Z,54.00
2018-06-16T09:24:32.270Z,55.10
2018-06-16T09:27:00.524Z,56.00
2018-06-16T09:29:28.143Z,53.80
2018-06-16T09:31:55.724Z,52.10
2018-06-16T09:34:24.168Z,54.40
2018-06-16T09:36:51.761Z,51.90
2018-06-16T09:39:19.417Z,53.10
2018-06-16T09:41:47.715Z,53.00
2018-06-16T09:44:15.297Z,53.20
2018-06-16T09:46:42.867Z,53.20
2018-06-16T09:49:10.463Z,54.30
2018-06-16T09:51:38.113Z,52.30
2018-06-16T09:54:05.677Z,53.00
2018-06-16T09:56:33.271Z,53.90
2018-06-16T09:59:00.854Z,54.10
2018-06-16T10:01:28.457Z,50.60
2018-06-16T10:03:56.062Z,50.50
2018-06-16T10:06:23.687Z,52.10
2018-06-16T10:11:18.853Z,51.40
2018-06-16T10:13:46.416Z,52.10
2018-06-16T10:16:14.123Z,50.70
2018-06-16T10:18:41.702Z,51.00
2018-06-16T10:21:09.335Z,51.60
2018-06-16T10:23:36.958Z,50.00
2018-06-16T10:26:05.152Z,51.10
2018-06-16T10:28:32.741Z,50.30
2018-06-16T10:31:00.365Z,49.10
2018-06-16T10:33:28.068Z,49.30
2018-06-16T10:35:55.625Z,49.30
2018-06-16T10:38:23.198Z,47.50
2018-06-16T10:40:50.838Z,48.90
2018-06-16T10:43:18.433Z,47.10
2018-06-16T10:45:46.053Z,46.30
2018-06-16T10:50:41.135Z,45.20
2018-06-16T10:53:08.714Z,46.30
2018-06-16T10:55:36.253Z,46.60
2018-06-16T10:58:03.918Z,45.00
2018-06-16T11:00:31.504Z,45.70
2018-06-16T11:02:59.102Z,42.30
2018-06-16T11:05:26.696Z,43.40
2018-06-16T11:07:54.278Z,46.40
2018-06-16T11:10:21.903Z,45.80
2018-06-16T11:12:49.655Z,44.00
2018-06-16T11:15:17.273Z,45.00
2018-06-16T11:17:44.919Z,43.60
2018-06-16T11:20:12.530Z,42.60
2018-06-16T11:22:40.146Z,43.10
2018-06-16T11:25:07.763Z,42.10
2018-06-16T11:27:35.386Z,40.40
2018-06-16T11:30:03.191Z,37.70
2018-06-16T11:32:30.769Z,39.40
2018-06-16T11:34:58.418Z,39.90
2018-06-16T11:37:26.021Z,40.60
2018-06-16T11:39:53.619Z,41.10
2018-06-16T11:42:21.204Z,39.30
2018-06-16T11:44:48.888Z,35.50
2018-06-16T11:47:16.486Z,34.90
2018-06-16T11:49:44.069Z,34.70
2018-06-16T11:52:11.671Z,38.90
2018-06-16T11:54:39.214Z,36.10
2018-06-16T11:57:06.784Z,32.00
2018-06-16T11:59:35.091Z,27.30
2018-06-16T12:02:02.672Z,24.90
2018-06-16T12:04:30.240Z,23.20
2018-06-16T12:06:57.837Z,20.70
2018-06-16T12:09:25.467Z,19.90
2018-06-16T12:11:53.060Z,19.50
2018-06-16T12:14:20.756Z,18.50
2018-06-16T12:16:48.346Z,18.60
2018-06-16T12:19:15.944Z,18.00
2018-06-16T12:21:43.526Z,17.10
2018-06-16T12:24:11.163Z,16.80
2018-06-16T12:26:38.739Z,16.50
2018-06-16T12:29:06.350Z,17.80
2018-06-16T12:31:33.918Z,17.30
2018-06-16T12:34:01.519Z,16.50
2018-06-16T12:36:29.121Z,17.50
2018-06-16T12:38:56.787Z,18.30
2018-06-16T12:41:24.349Z,20.30
2018-06-16T12:43:51.942Z,21.70
2018-06-16T12:46:19.600Z,21.80
2018-06-16T12:48:47.210Z,19.80
2018-06-16T12:51:15.855Z,20.20
2018-06-16T12:53:43.584Z,18.80
2018-06-16T12:56:11.193Z,17.50
2018-06-16T12:58:39.352Z,16.80
2018-06-16T13:01:07.012Z,16.60
2018-06-16T13:03:34.584Z,16.00
2018-06-16T13:06:02.191Z,15.10
2018-06-16T13:08:29.780Z,15.30
2018-06-16T13:10:57.393Z,15.90
2018-06-16T13:13:25.079Z,16.50
2018-06-16T13:15:52.674Z,17.20
2018-06-16T13:18:20.272Z,17.10
2018-06-16T13:20:49.511Z,17.00
2018-06-16T13:23:17.054Z,16.30
2018-06-16T13:25:44.672Z,16.70
2018-06-16T13:28:12.248Z,18.00
2018-06-16T13:30:39.902Z,19.30
2018-06-16T13:33:07.568Z,19.70
2018-06-16T13:35:35.270Z,18.90
2018-06-16T13:38:02.841Z,19.60
2018-06-16T13:40:30.429Z,19.10
2018-06-16T13:42:58.684Z,20.70
2018-06-16T13:45:26.275Z,23.70
2018-06-16T13:47:53.899Z,22.10
2018-06-16T13:50:21.472Z,20.20
2018-06-16T13:52:49.057Z,18.90
2018-06-16T13:55:16.694Z,19.40
2018-06-16T13:57:44.266Z,19.10
2018-06-16T14:00:11.927Z,20.00
2018-06-16T14:02:39.541Z,21.10
2018-06-16T14:05:07.108Z,22.40
2018-06-16T14:07:34.684Z,24.10
2018-06-16T14:10:02.327Z,25.10
2018-06-16T14:12:29.980Z,25.50
2018-06-16T14:14:57.623Z,26.10
2018-06-16T14:17:25.775Z,25.70
2018-06-16T14:19:53.376Z,25.00
2018-06-16T14:22:20.982Z,23.30
2018-06-16T14:24:48.585Z,22.90
2018-06-16T14:27:16.158Z,22.30
2018-06-16T14:29:43.768Z,23.20
2018-06-16T14:32:11.388Z,24.70
2018-06-16T14:34:38.976Z,25.20
2018-06-16T14:37:06.539Z,27.70
2018-06-16T14:39:34.166Z,27.80
2018-06-16T14:42:01.754Z,29.60
2018-06-16T14:44:29.365Z,31.00
2018-06-16T14:46:57.531Z,32.40
2018-06-16T14:49:25.121Z,34.20
2018-06-16T14:51:52.746Z,34.10
2018-06-16T14:54:20.322Z,35.50
2018-06-16T14:56:47.962Z,33.80
2018-06-16T15:01:49.828Z,36.90
2018-06-16T15:04:17.471Z,38.00
2018-06-16T15:06:45.090Z,37.60
2018-06-16T15:09:12.689Z,36.90
2018-06-16T15:11:40.314Z,36.30
2018-06-16T15:14:08.104Z,37.60
2018-06-16T15:16:35.704Z,38.00
2018-06-16T15:19:03.358Z,39.30
2018-06-16T15:21:30.924Z,38.60
2018-06-16T15:26:26.055Z,40.20
2018-06-16T15:28:53.653Z,41.60
2018-06-16T15:31:21.276Z,41.80
2018-06-16T15:33:49.696Z,42.20
2018-06-16T15:36:17.348Z,40.20
2018-06-16T15:38:45.139Z,41.70
2018-06-16T15:41:12.850Z,41.90
2018-06-16T15:43:40.439Z,40.40
2018-06-16T15:46:08.026Z,41.70
2018-06-16T15:48:35.684Z,40.60
2018-06-16T15:51:03.279Z,40.40
2018-06-16T15:53:30.880Z,40.40
2018-06-16T15:55:58.498Z,41.00
2018-06-16T15:58:26.107Z,42.20
2018-06-16T16:00:53.708Z,41.40
2018-06-16T16:05:48.852Z,43.40
2018-06-16T16:08:16.449Z,41.70
2018-06-16T16:10:44.033Z,40.00
2018-06-16T16:13:11.616Z,42.10
2018-06-16T16:15:39.188Z,41.70
2018-06-16T16:18:06.784Z,41.30
2018-06-16T16:20:34.399Z,42.80
2018-06-16T16:23:01.990Z,42.90
2018-06-16T16:25:29.638Z,42.50
2018-06-16T16:27:57.170Z,42.10
2018-06-16T16:30:24.765Z,41.40
2018-06-16T16:32:52.410Z,41.90
2018-06-16T16:35:20.048Z,42.60
2018-06-16T16:37:47.769Z,41.20
2018-06-16T16:40:15.408Z,42.80
2018-06-16T16:42:42.994Z,42.30
2018-06-16T16:45:10.597Z,43.90
2018-06-16T16:47:38.280Z,44.20
2018-06-16T16:50:05.954Z,44.10
2018-06-16T16:52:33.508Z,44.00
2018-06-16T16:55:01.148Z,42.70
2018-06-16T16:57:28.703Z,41.40
2018-06-16T16:59:56.284Z,43.30
2018-06-16T17:02:23.906Z,44.50
2018-06-16T17:04:51.547Z,42.10
2018-06-16T17:07:19.140Z,42.80
2018-06-16T17:09:46.716Z,41.40
2018-06-16T17:12:14.290Z,43.40
2018-06-16T17:14:41.886Z,44.40
2018-06-16T17:17:09.469Z,41.90
2018-06-16T17:19:37.129Z,41.10
2018-06-16T17:22:04.822Z,41.50
2018-06-16T17:24:33.357Z,42.60
2018-06-16T17:27:00.952Z,41.00
2018-06-16T17:29:28.525Z,43.50
2018-06-16T17:34:24.404Z,45.20
2018-06-16T17:36:52.009Z,46.80
2018-06-16T17:39:19.607Z,47.70
2018-06-16T17:41:47.177Z,48.50
2018-06-16T17:44:14.811Z,47.40
2018-06-16T17:46:42.433Z,47.10
2018-06-16T17:49:10.053Z,47.90
2018-06-16T17:51:37.676Z,48.20
2018-06-16T17:54:05.412Z,48.60
2018-06-16T17:56:32.998Z,48.80
2018-06-16T17:59:00.574Z,48.30
2018-06-16T18:01:28.155Z,48.70
2018-06-16T18:03:55.781Z,48.90
2018-06-16T18:06:23.415Z,49.30
2018-06-16T18:08:51.124Z,49.30
2018-06-16T18:11:18.949Z,48.60
2018-06-16T18:13:46.520Z,49.50
2018-06-16T18:16:14.116Z,50.50
2018-06-16T18:18:41.741Z,51.20
2018-06-16T18:21:09.378Z,51.90
2018-06-16T18:23:37.039Z,52.00
2018-06-16T18:26:04.803Z,53.00
2018-06-16T18:28:32.459Z,53.10
2018-06-16T18:31:00.130Z,53.80
2018-06-16T18:33:27.729Z,53.50
2018-06-16T18:35:55.376Z,54.60
2018-06-16T18:38:22.952Z,54.20
2018-06-16T18:40:50.530Z,54.60
2018-06-16T18:43:18.156Z,55.40
2018-06-16T18:45:45.791Z,56.00
2018-06-16T18:48:13.464Z,56.70
2018-06-16T18:50:41.069Z,57.40
2018-06-16T18:53:08.676Z,58.20
2018-06-16T18:55:36.302Z,58.30
2018-06-16T18:58:03.915Z,58.50
2018-06-16T19:00:31.497Z,58.50
2018-06-16T19:02:59.122Z,59.00
2018-06-16T19:05:26.756Z,60.20
2018-06-16T19:07:54.357Z,60.50
2018-06-16T19:10:22.025Z,61.10
2018-06-16T19:12:49.665Z,61.80
2018-06-16T19:15:17.269Z,61.90
2018-06-16T19:17:45.601Z,62.00
2018-06-16T19:20:13.201Z,63.30
2018-06-16T19:22:40.778Z,63.20
2018-06-16T19:25:08.419Z,63.50
2018-06-16T19:27:36.014Z,64.40
2018-06-16T19:30:03.765Z,65.00
2018-06-16T19:34:58.969Z,64.60
2018-06-16T19:37:26.572Z,64.90
2018-06-16T19:39:54.207Z,64.80
2018-06-16T19:44:49.358Z,65.20
2018-06-16T19:47:17.002Z,65.30
2018-06-16T19:49:44.621Z,66.10
2018-06-16T19:52:12.226Z,66.60
2018-06-16T19:54:39.855Z,66.90
2018-06-16T19:57:08.294Z,66.90
2018-06-16T19:59:35.886Z,66.50
2018-06-16T20:02:03.553Z,66.50
2018-06-16T20:04:31.168Z,66.80
2018-06-16T20:06:58.750Z,67.50
2018-06-16T20:09:26.363Z,67.20
2018-06-16T20:11:54.048Z,67.40
2018-06-16T20:14:21.550Z,67.70
2018-06-16T20:16:49.202Z,67.90
2018-06-16T20:19:16.854Z,67.80
2018-06-16T20:21:44.477Z,68.00
2018-06-16T20:24:12.015Z,68.30
2018-06-16T20:26:39.677Z,68.50
2018-06-16T20:29:07.275Z,68.70
2018-06-16T20:31:34.922Z,68.80
2018-06-16T20:34:02.572Z,69.20
2018-06-16T20:36:30.202Z,69.30
2018-06-16T20:38:57.792Z,69.30
2018-06-16T20:41:25.377Z,69.40
2018-06-16T20:43:52.992Z,69.40
2018-06-16T20:46:20.591Z,69.50
2018-06-16T20:48:48.272Z,69.00
2018-06-16T20:51:15.898Z,69.20
2018-06-16T20:53:43.569Z,69.10
2018-06-16T20:56:11.192Z,69.40
2018-06-16T20:58:38.734Z,69.40
2018-06-16T21:01:06.342Z,69.30
2018-06-16T21:03:33.936Z,69.10
2018-06-16T21:06:02.505Z,69.30
2018-06-16T21:08:30.338Z,69.40
2018-06-16T21:10:57.998Z,69.40
2018-06-16T21:13:25.666Z,69.20
2018-06-16T21:15:54.071Z,69.30
2018-06-16T21:18:21.720Z,69.20
2018-06-16T21:20:50.077Z,69.30
2018-06-16T21:23:17.679Z,69.50
2018-06-16T21:25:45.336Z,69.30
2018-06-16T21:28:12.968Z,69.20
2018-06-16T21:30:40.520Z,69.30
2018-06-16T21:33:08.784Z,69.30
2018-06-16T21:35:36.440Z,69.50
2018-06-16T21:38:05.058Z,69.90
2018-06-16T21:40:32.818Z,69.90
2018-06-16T21:43:00.500Z,70.10
2018-06-16T21:45:28.122Z,70.10
2018-06-16T21:47:55.785Z,69.70
2018-06-16T21:50:24.367Z,70.10
2018-06-16T21:52:52.009Z,69.90
2018-06-16T21:55:19.733Z,70.20
2018-06-16T21:57:47.315Z,70.40
2018-06-16T22:00:14.922Z,70.10
2018-06-16T22:02:42.853Z,70.10
2018-06-16T22:05:10.395Z,69.80
2018-06-16T22:07:38.003Z,69.80
2018-06-16T22:10:06.708Z,70.10
2018-06-16T22:12:34.284Z,70.20
2018-06-16T22:15:02.531Z,70.40
2018-06-16T22:17:30.122Z,70.60
2018-06-16T22:19:57.683Z,70.80
2018-06-16T22:22:25.338Z,71.10
2018-06-16T22:24:53.921Z,71.40
2018-06-16T22:27:21.512Z,71.60
2018-06-16T22:29:49.100Z,71.60
2018-06-16T22:32:16.704Z,71.80
2018-06-16T22:34:44.373Z,71.90
2018-06-16T22:37:12.593Z,71.70
2018-06-16T22:39:40.268Z,71.90
2018-06-16T22:42:07.856Z,71.60
2018-06-16T22:44:35.440Z,71.40
2018-06-16T22:47:03.152Z,71.20
2018-06-16T22:49:30.721Z,71.30
2018-06-16T22:51:58.356Z,71.20
2018-06-16T22:54:25.967Z,71.20
2018-06-16T22:56:53.524Z,71.20
2018-06-16T22:59:21.132Z,71.40
2018-06-16T23:01:48.828Z,71.70
2018-06-16T23:04:16.428Z,71.50
2018-06-16T23:06:44.014Z,71.30
2018-06-16T23:09:12.254Z,71.00
2018-06-16T23:11:39.824Z,71.00
2018-06-16T23:14:07.691Z,71.10
2018-06-16T23:16:35.400Z,71.00
2018-06-16T23:19:03.076Z,71.00
2018-06-16T23:21:30.782Z,70.80
2018-06-16T23:23:59.147Z,70.70
2018-06-16T23:26:26.809Z,71.00
2018-06-16T23:28:54.455Z,71.10
2018-06-16T23:31:22.090Z,71.80
2018-06-16T23:33:50.232Z,71.90
2018-06-16T23:36:18.542Z,72.30
2018-06-16T23:38:46.132Z,72.40
2018-06-16T23:41:13.742Z,72.50
2018-06-16T23:43:41.315Z,72.80
2018-06-16T23:46:08.971Z,72.80
2018-06-16T23:48:36.571Z,73.30
2018-06-16T23:51:04.143Z,73.20
2018-06-16T23:53:31.776Z,72.30
2018-06-16T23:55:59.347Z,72.70
2018-06-16T23:58:26.975Z,73.10
